Time;durP1;ratioP1;P1;durP2;ratioP2;P2;SDS_P1;SDS_P2;PMS_P1;PMS_P2;Temp;Humidity;BMP_temperature;BMP_pressure;BME280_temperature;BME280_humidity;BME280_pressure;Samples;Min_cycle;Max_cycle;Signal;HPM_P1;HPM_P2
2023/07/19 00:00:40;;;;;;;4.67;3.33;;;;;;;;;;5050941;28;20411;-51
2023/07/19 00:03:06;;;;;;;10.63;4.73;;;;;;;;;;5051621;28;20921;-51
2023/07/19 00:05:32;;;;;;;5.83;3.70;;;;;;;;;;5052031;28;20393;-52
2023/07/19 00:07:58;;;;;;;7.40;3.70;;;;;;;;;;5053730;28;20916;-51
2023/07/19 00:10:24;;;;;;;5.63;4.90;;;;;;;;;;5054839;28;20393;-51
2023/07/19 00:12:50;;;;;;;5.10;3.77;;;;;;;;;;5054879;28;20401;-50
2023/07/19 00:15:17;;;;;;;6.07;4.40;;;;;;;;;;5054577;28;20387;-51
2023/07/19 00:17:44;;;;;;;4.87;4.30;;;;;;;;;;5054605;28;20467;-51
2023/07/19 00:20:10;;;;;;;6.90;4.30;;;;;;;;;;5054167;28;20931;-51
2023/07/19 00:22:36;;;;;;;8.20;3.60;;;;;;;;;;5053637;28;20516;-50
2023/07/19 00:25:02;;;;;;;6.63;4.47;;;;;;;;;;5054576;28;20380;-52
2023/07/19 00:27:28;;;;;;;4.80;3.50;;;;;;;;;;5054429;28;20893;-51
2023/07/19 00:29:54;;;;;;;6.10;4.50;;;;;;;;;;5054265;28;20405;-52
2023/07/19 00:32:20;;;;;;;6.70;3.83;;;;;;;;;;5054218;28;20501;-52
2023/07/19 00:34:46;;;;;;;5.27;4.00;;;;;;;;;;5054248;28;20380;-51
2023/07/19 00:37:12;;;;;;;5.30;3.80;;;;;;;;;;5053169;28;20396;-46
2023/07/19 00:39:38;;;;;;;9.90;4.13;;;;;;;;;;5054064;28;20410;-50
2023/07/19 00:42:04;;;;;;;8.80;4.20;;;;;;;;;;5048665;28;20443;-49
2023/07/19 00:44:30;;;;;;;6.60;3.53;;;;;;;;;;5052939;28;20388;-49
2023/07/19 00:46:58;;;;;;;6.17;3.80;;;;;;;;;;5048600;28;20416;-52
2023/07/19 00:49:24;;;;;;;6.20;4.13;;;;;;;;;;5051861;28;20443;-51
2023/07/19 00:51:50;;;;;;;5.97;3.40;;;;;;;;;;5058544;28;20458;-51
2023/07/19 00:54:16;;;;;;;17.53;3.90;;;;;;;;;;5051485;28;20890;-51
2023/07/19 00:56:44;;;;;;;7.37;3.90;;;;;;;;;;5053932;28;20465;-51
2023/07/19 00:59:11;;;;;;;8.73;4.10;;;;;;;;;;5053793;28;20403;-49
2023/07/19 01:01:37;;;;;;;6.50;4.00;;;;;;;;;;5045298;28;20431;-51
2023/07/19 01:04:03;;;;;;;7.10;4.57;;;;;;;;;;5052386;28;20419;-51
2023/07/19 01:06:29;;;;;;;4.17;3.20;;;;;;;;;;5053308;28;20412;-51
2023/07/19 01:08:55;;;;;;;7.37;4.27;;;;;;;;;;5052783;28;20479;-52
2023/07/19 01:11:21;;;;;;;8.73;3.60;;;;;;;;;;5053697;28;20406;-50
2023/07/19 01:13:50;;;;;;;12.73;3.97;;;;;;;;;;5053535;28;20380;-49
2023/07/19 01:16:17;;;;;;;7.27;3.57;;;;;;;;;;5053324;28;20403;-51
2023/07/19 01:18:42;;;;;;;5.53;4.13;;;;;;;;;;5051945;28;20426;-51
2023/07/19 01:21:09;;;;;;;9.90;3.97;;;;;;;;;;5053169;28;20423;-50
2023/07/19 01:23:35;;;;;;;6.83;3.33;;;;;;;;;;5053334;28;20419;-51
2023/07/19 01:26:01;;;;;;;6.77;3.50;;;;;;;;;;5053829;28;20438;-51
2023/07/19 01:28:27;;;;;;;4.10;3.60;;;;;;;;;;5053173;28;20432;-51
2023/07/19 01:30:53;;;;;;;6.03;3.40;;;;;;;;;;5052924;28;20404;-51
2023/07/19 01:33:19;;;;;;;4.83;3.50;;;;;;;;;;5052239;28;20412;-50
2023/07/19 01:35:45;;;;;;;4.23;3.07;;;;;;;;;;5053112;28;20416;-50
2023/07/19 01:38:11;;;;;;;5.13;3.03;;;;;;;;;;5048865;28;20437;-50
2023/07/19 01:40:37;;;;;;;4.43;3.43;;;;;;;;;;5052838;28;20473;-49
2023/07/19 01:43:03;;;;;;;3.67;3.10;;;;;;;;;;5052954;28;20465;-52
2023/07/19 01:45:29;;;;;;;3.80;3.07;;;;;;;;;;5052020;28;20410;-51
2023/07/19 01:47:55;;;;;;;3.80;3.23;;;;;;;;;;5053089;28;20398;-50
2023/07/19 01:50:21;;;;;;;5.33;3.20;;;;;;;;;;5050399;28;20919;-51
2023/07/19 01:52:47;;;;;;;5.00;3.50;;;;;;;;;;5052807;28;20417;-51
2023/07/19 01:55:13;;;;;;;3.00;2.80;;;;;;;;;;5052695;28;20442;-51
2023/07/19 01:57:39;;;;;;;5.00;3.57;;;;;;;;;;5052743;28;20391;-50
2023/07/19 02:00:05;;;;;;;3.33;3.03;;;;;;;;;;5051563;28;20427;-49
2023/07/19 02:02:31;;;;;;;5.73;3.63;;;;;;;;;;5052517;28;20434;-50
2023/07/19 02:04:57;;;;;;;6.73;3.23;;;;;;;;;;5052621;28;20402;-50
2023/07/19 02:07:23;;;;;;;7.00;3.47;;;;;;;;;;5052584;28;20544;-51
2023/07/19 02:09:49;;;;;;;6.87;3.53;;;;;;;;;;5052311;28;20783;-51
2023/07/19 02:12:15;;;;;;;6.27;3.33;;;;;;;;;;5052563;28;20503;-51
2023/07/19 02:14:41;;;;;;;4.60;3.00;;;;;;;;;;5051590;28;20450;-52
2023/07/19 02:17:07;;;;;;;4.20;3.40;;;;;;;;;;5052335;28;20819;-51
2023/07/19 02:19:33;;;;;;;4.57;3.27;;;;;;;;;;5052218;28;20488;-51
2023/07/19 02:21:59;;;;;;;5.77;3.07;;;;;;;;;;5052179;28;20452;-51
2023/07/19 02:24:25;;;;;;;6.27;3.10;;;;;;;;;;5052472;28;20372;-50
2023/07/19 02:26:51;;;;;;;4.40;4.00;;;;;;;;;;5052334;28;20775;-50
2023/07/19 02:29:17;;;;;;;4.07;3.47;;;;;;;;;;5050534;28;20833;-51
2023/07/19 02:31:43;;;;;;;4.30;3.90;;;;;;;;;;5052158;28;20785;-52
2023/07/19 02:34:09;;;;;;;7.33;4.40;;;;;;;;;;5052097;28;20856;-51
2023/07/19 02:36:35;;;;;;;5.77;3.80;;;;;;;;;;5052009;28;20380;-52
2023/07/19 02:39:03;;;;;;;7.40;3.77;;;;;;;;;;5051874;28;20833;-51
2023/07/19 02:41:29;;;;;;;5.03;4.03;;;;;;;;;;5051207;28;20396;-50
2023/07/19 02:43:55;;;;;;;4.53;4.00;;;;;;;;;;5051716;28;20431;-51
2023/07/19 02:46:21;;;;;;;4.37;3.97;;;;;;;;;;5052130;28;20881;-48
2023/07/19 02:48:47;;;;;;;6.87;4.20;;;;;;;;;;5047955;28;21128;-52
2023/07/19 02:51:13;;;;;;;4.10;3.70;;;;;;;;;;5051476;28;20791;-50
2023/07/19 02:53:39;;;;;;;4.10;3.20;;;;;;;;;;5051784;28;20424;-49
2023/07/19 02:56:05;;;;;;;9.10;3.50;;;;;;;;;;5051290;28;20419;-52
2023/07/19 02:58:31;;;;;;;4.97;3.80;;;;;;;;;;5049221;28;20419;-51
2023/07/19 03:00:56;;;;;;;4.10;3.77;;;;;;;;;;5051475;28;20492;-50
2023/07/19 03:03:23;;;;;;;3.70;3.40;;;;;;;;;;5051584;28;20514;-50
2023/07/19 03:05:49;;;;;;;3.20;2.83;;;;;;;;;;5051592;28;20476;-50
2023/07/19 03:08:15;;;;;;;3.73;3.40;;;;;;;;;;5051530;28;20458;-48
2023/07/19 03:10:41;;;;;;;4.70;3.70;;;;;;;;;;5051481;28;20789;-50
2023/07/19 03:13:07;;;;;;;4.60;3.43;;;;;;;;;;5051529;28;20397;-50
2023/07/19 03:15:34;;;;;;;6.37;3.10;;;;;;;;;;5051579;28;20416;-51
2023/07/19 03:18:03;;;;;;;5.47;3.57;;;;;;;;;;5051595;28;20769;-51
2023/07/19 03:20:29;;;;;;;7.20;4.00;;;;;;;;;;5051231;28;20416;-51
2023/07/19 03:22:56;;;;;;;3.77;3.47;;;;;;;;;;5051433;28;20459;-52
2023/07/19 03:25:22;;;;;;;7.13;4.40;;;;;;;;;;5045611;28;20918;-52
2023/07/19 03:27:49;;;;;;;4.20;3.80;;;;;;;;;;5051208;28;20414;-52
2023/07/19 03:30:15;;;;;;;5.73;4.10;;;;;;;;;;5049430;28;20423;-48
2023/07/19 03:32:41;;;;;;;4.40;3.90;;;;;;;;;;5051452;28;20419;-51
2023/07/19 03:35:07;;;;;;;8.43;3.87;;;;;;;;;;5048166;28;20789;-52
2023/07/19 03:37:34;;;;;;;5.73;3.50;;;;;;;;;;5051280;28;20500;-48
2023/07/19 03:40:00;;;;;;;4.63;3.67;;;;;;;;;;5051354;28;20418;-51
2023/07/19 03:42:26;;;;;;;5.47;3.90;;;;;;;;;;5055187;28;20996;-50
2023/07/19 03:44:52;;;;;;;5.40;4.13;;;;;;;;;;5055087;28;20405;-50
2023/07/19 03:47:18;;;;;;;8.37;4.77;;;;;;;;;;5055191;28;20386;-50
2023/07/19 03:49:44;;;;;;;11.00;4.70;;;;;;;;;;5054743;28;20420;-51
2023/07/19 03:52:10;;;;;;;6.10;4.53;;;;;;;;;;5055356;28;20416;-51
2023/07/19 03:54:36;;;;;;;6.73;4.23;;;;;;;;;;5054932;28;20860;-51
2023/07/19 03:57:02;;;;;;;5.20;4.10;;;;;;;;;;5055059;28;20383;-52
2023/07/19 03:59:29;;;;;;;7.00;3.83;;;;;;;;;;5053430;28;20753;-52
2023/07/19 04:01:55;;;;;;;3.80;3.40;;;;;;;;;;5054620;28;20962;-49
2023/07/19 04:04:21;;;;;;;5.13;3.70;;;;;;;;;;5054776;28;20642;-51
2023/07/19 04:06:47;;;;;;;5.27;3.73;;;;;;;;;;5054921;28;20404;-52
2023/07/19 04:09:13;;;;;;;7.27;3.60;;;;;;;;;;5054599;28;20913;-50
2023/07/19 04:11:39;;;;;;;15.40;4.70;;;;;;;;;;5046698;28;20958;-52
2023/07/19 04:14:05;;;;;;;4.50;3.47;;;;;;;;;;5053417;28;20420;-51
2023/07/19 04:16:31;;;;;;;3.60;3.20;;;;;;;;;;5054668;28;20390;-52
2023/07/19 04:18:57;;;;;;;11.83;3.07;;;;;;;;;;5054509;28;20485;-49
2023/07/19 04:21:23;;;;;;;4.47;3.20;;;;;;;;;;5047873;28;20760;-48
2023/07/19 04:23:49;;;;;;;3.67;3.37;;;;;;;;;;5049680;28;20473;-51
2023/07/19 04:26:15;;;;;;;5.50;3.57;;;;;;;;;;5050059;28;20437;-52
2023/07/19 04:28:41;;;;;;;5.30;3.37;;;;;;;;;;5054724;28;20884;-51
2023/07/19 04:31:07;;;;;;;5.23;3.80;;;;;;;;;;5054518;28;20409;-50
2023/07/19 04:33:33;;;;;;;4.17;3.33;;;;;;;;;;5054237;28;20394;-51
2023/07/19 04:35:59;;;;;;;6.30;3.23;;;;;;;;;;5054428;28;20383;-51
2023/07/19 04:38:26;;;;;;;6.63;3.23;;;;;;;;;;5053959;28;20481;-50
2023/07/19 04:40:52;;;;;;;3.90;3.20;;;;;;;;;;5052779;28;20409;-51
2023/07/19 04:43:18;;;;;;;3.40;3.10;;;;;;;;;;5054098;28;20443;-51
2023/07/19 04:45:44;;;;;;;4.27;3.87;;;;;;;;;;5054045;28;20446;-51
2023/07/19 04:48:10;;;;;;;4.40;4.00;;;;;;;;;;5054048;28;20408;-51
2023/07/19 04:50:37;;;;;;;5.97;3.67;;;;;;;;;;5053647;28;20748;-50
2023/07/19 04:53:03;;;;;;;3.30;3.00;;;;;;;;;;5052894;28;20395;-52
2023/07/19 04:55:29;;;;;;;3.83;2.90;;;;;;;;;;5052696;28;20486;-50
2023/07/19 04:57:54;;;;;;;7.63;3.63;;;;;;;;;;5053704;28;20417;-52
2023/07/19 05:00:20;;;;;;;4.47;3.20;;;;;;;;;;5053534;28;20395;-50
2023/07/19 05:02:46;;;;;;;6.53;3.53;;;;;;;;;;5053824;28;20460;-51
2023/07/19 05:05:14;;;;;;;5.03;3.50;;;;;;;;;;5053742;28;20372;-49
2023/07/19 05:07:40;;;;;;;4.33;3.90;;;;;;;;;;5053669;28;20519;-51
2023/07/19 05:10:07;;;;;;;3.40;3.10;;;;;;;;;;5052366;28;20906;-51
2023/07/19 05:12:33;;;;;;;4.10;3.50;;;;;;;;;;5053641;28;20389;-49
2023/07/19 05:14:59;;;;;;;6.67;3.93;;;;;;;;;;5053673;28;20408;-51
2023/07/19 05:17:25;;;;;;;13.17;3.90;;;;;;;;;;5053524;28;20757;-51
2023/07/19 05:19:51;;;;;;;5.40;4.83;;;;;;;;;;5048508;28;20430;-51
2023/07/19 05:22:17;;;;;;;4.20;3.50;;;;;;;;;;5049567;28;20421;-51
2023/07/19 05:24:43;;;;;;;5.87;3.30;;;;;;;;;;5053372;28;20394;-51
2023/07/19 05:27:15;;;;;;;4.47;4.03;;;;;;;;;;5053356;28;20897;-51
2023/07/19 05:29:41;;;;;;;5.33;4.00;;;;;;;;;;5049471;28;20797;-49
2023/07/19 05:32:07;;;;;;;3.60;3.27;;;;;;;;;;5047342;28;20434;-52
2023/07/19 05:34:33;;;;;;;6.43;3.30;;;;;;;;;;5053111;28;20431;-51
2023/07/19 05:36:59;;;;;;;7.03;4.53;;;;;;;;;;5052301;28;20757;-52
2023/07/19 05:39:25;;;;;;;3.50;3.00;;;;;;;;;;5052658;28;20434;-52
2023/07/19 05:41:51;;;;;;;5.73;4.00;;;;;;;;;;5052375;28;20428;-51
2023/07/19 05:44:17;;;;;;;7.30;4.00;;;;;;;;;;5052390;28;20387;-52
2023/07/19 05:46:43;;;;;;;5.90;3.53;;;;;;;;;;5052810;28;20465;-51
2023/07/19 05:49:10;;;;;;;4.50;3.30;;;;;;;;;;5052637;28;20432;-52
2023/07/19 05:51:36;;;;;;;13.87;4.10;;;;;;;;;;5052027;28;20395;-50
2023/07/19 05:54:03;;;;;;;6.30;3.70;;;;;;;;;;5052631;28;20381;-51
2023/07/19 05:56:29;;;;;;;3.83;3.53;;;;;;;;;;5052742;28;20388;-50
2023/07/19 05:58:55;;;;;;;3.93;3.50;;;;;;;;;;5052628;28;20410;-52
2023/07/19 06:01:21;;;;;;;5.20;4.10;;;;;;;;;;5052303;28;20398;-52
2023/07/19 06:03:47;;;;;;;8.20;3.77;;;;;;;;;;5048959;28;20759;-46
2023/07/19 06:06:14;;;;;;;4.80;3.77;;;;;;;;;;5049353;28;20431;-45
2023/07/19 06:08:40;;;;;;;8.53;4.43;;;;;;;;;;5052561;28;20436;-49
2023/07/19 06:11:06;;;;;;;4.30;3.60;;;;;;;;;;5052166;28;20909;-50
2023/07/19 06:13:32;;;;;;;6.50;3.77;;;;;;;;;;5050387;28;20389;-49
2023/07/19 06:15:58;;;;;;;4.97;3.30;;;;;;;;;;5050875;28;20475;-47
2023/07/19 06:18:24;;;;;;;7.90;5.07;;;;;;;;;;5051062;28;20922;-45
2023/07/19 06:20:50;;;;;;;8.07;3.40;;;;;;;;;;5051093;28;20665;-46
2023/07/19 06:23:16;;;;;;;4.77;4.07;;;;;;;;;;5049923;28;20447;-45
2023/07/19 06:25:43;;;;;;;8.17;5.37;;;;;;;;;;5052197;28;20784;-45
2023/07/19 06:28:09;;;;;;;4.03;3.73;;;;;;;;;;5052178;28;20390;-45
2023/07/19 06:30:35;;;;;;;4.27;3.87;;;;;;;;;;5052096;28;20396;-46
2023/07/19 06:33:01;;;;;;;4.17;3.77;;;;;;;;;;5051595;28;20472;-45
2023/07/19 06:35:27;;;;;;;4.53;3.60;;;;;;;;;;5051909;28;20447;-47
2023/07/19 06:37:53;;;;;;;5.13;3.63;;;;;;;;;;5051882;28;20410;-49
2023/07/19 06:40:19;;;;;;;6.70;3.63;;;;;;;;;;5051759;28;20385;-50
2023/07/19 06:42:44;;;;;;;10.53;3.90;;;;;;;;;;5052027;28;20454;-45
2023/07/19 06:45:11;;;;;;;5.57;3.40;;;;;;;;;;5044899;28;20800;-46
2023/07/19 06:47:37;;;;;;;7.13;4.20;;;;;;;;;;5051462;28;20800;-45
2023/07/19 06:50:03;;;;;;;4.20;3.80;;;;;;;;;;5051645;28;20445;-44
2023/07/19 06:52:29;;;;;;;6.87;3.67;;;;;;;;;;5051857;28;20429;-45
2023/07/19 06:54:55;;;;;;;10.43;4.87;;;;;;;;;;5051759;28;20397;-45
2023/07/19 06:57:21;;;;;;;5.93;4.30;;;;;;;;;;5051753;28;20390;-46
2023/07/19 06:59:49;;;;;;;4.47;3.97;;;;;;;;;;5051938;28;20410;-46
2023/07/19 07:02:18;;;;;;;3.77;3.47;;;;;;;;;;5051737;28;20444;-46
2023/07/19 07:04:44;;;;;;;4.70;3.70;;;;;;;;;;5051710;28;20416;-45
2023/07/19 07:07:10;;;;;;;7.60;4.13;;;;;;;;;;5051630;28;20426;-46
2023/07/19 07:09:36;;;;;;;7.33;4.47;;;;;;;;;;5051479;28;20446;-46
2023/07/19 07:12:02;;;;;;;7.60;4.37;;;;;;;;;;5051549;28;20927;-46
2023/07/19 07:14:28;;;;;;;8.90;5.33;;;;;;;;;;5051145;28;20402;-46
2023/07/19 07:16:54;;;;;;;4.77;4.37;;;;;;;;;;5051221;28;20385;-47
2023/07/19 07:19:20;;;;;;;8.30;5.20;;;;;;;;;;5051286;28;20430;-48
2023/07/19 07:21:46;;;;;;;6.87;5.27;;;;;;;;;;5047860;28;20432;-45
2023/07/19 07:24:12;;;;;;;10.93;4.87;;;;;;;;;;5051418;28;20407;-46
2023/07/19 07:26:38;;;;;;;18.70;5.60;;;;;;;;;;5051534;28;20925;-45
2023/07/19 07:29:05;;;;;;;8.63;6.10;;;;;;;;;;5051468;28;20429;-45
2023/07/19 07:31:32;;;;;;;8.63;5.27;;;;;;;;;;5051001;28;20405;-45
2023/07/19 07:33:58;;;;;;;9.70;4.87;;;;;;;;;;5047475;28;20399;-48
2023/07/19 07:36:24;;;;;;;7.73;5.30;;;;;;;;;;5051137;28;20939;-47
2023/07/19 07:38:50;;;;;;;7.60;5.47;;;;;;;;;;5049431;28;20402;-46
2023/07/19 07:41:16;;;;;;;12.93;6.27;;;;;;;;;;5047422;28;20784;-48
2023/07/19 07:43:42;;;;;;;9.37;6.03;;;;;;;;;;5051243;28;20454;-48
2023/07/19 07:46:08;;;;;;;7.17;5.30;;;;;;;;;;5051308;28;20377;-50
2023/07/19 07:48:34;;;;;;;5.70;4.80;;;;;;;;;;5051154;28;20797;-46
2023/07/19 07:51:00;;;;;;;8.13;5.17;;;;;;;;;;5050614;28;20438;-45
2023/07/19 07:53:26;;;;;;;7.70;6.60;;;;;;;;;;5049053;28;20469;-45
2023/07/19 07:55:53;;;;;;;9.70;5.73;;;;;;;;;;5051280;28;20393;-45
2023/07/19 07:58:19;;;;;;;7.40;5.90;;;;;;;;;;5050864;28;20927;-46
2023/07/19 08:00:45;;;;;;;7.03;5.63;;;;;;;;;;5050934;28;20455;-45
2023/07/19 08:03:11;;;;;;;7.67;5.43;;;;;;;;;;5050972;28;20425;-46
2023/07/19 08:05:38;;;;;;;9.23;5.70;;;;;;;;;;5051342;28;20737;-45
2023/07/19 08:08:05;;;;;;;7.80;5.77;;;;;;;;;;5050926;28;20444;-45
2023/07/19 08:10:32;;;;;;;8.50;5.70;;;;;;;;;;5050773;28;20428;-45
2023/07/19 08:12:58;;;;;;;7.87;6.23;;;;;;;;;;5050970;28;20822;-46
2023/07/19 08:15:24;;;;;;;8.47;5.87;;;;;;;;;;5050829;28;20473;-46
2023/07/19 08:17:50;;;;;;;10.47;6.13;;;;;;;;;;5050737;28;20937;-46
2023/07/19 08:20:16;;;;;;;10.20;5.47;;;;;;;;;;5050820;28;20507;-46
2023/07/19 08:22:42;;;;;;;8.83;5.90;;;;;;;;;;5050931;28;20429;-46
2023/07/19 08:25:08;;;;;;;19.50;6.40;;;;;;;;;;5050788;28;20416;-48
2023/07/19 08:27:34;;;;;;;7.70;5.87;;;;;;;;;;5049831;28;20409;-49
2023/07/19 08:30:07;;;;;;;8.03;5.50;;;;;;;;;;5053684;28;20434;-46
2023/07/19 08:32:33;;;;;;;8.33;5.13;;;;;;;;;;5054097;28;20477;-46
2023/07/19 08:35:00;;;;;;;8.23;5.50;;;;;;;;;;5054378;28;20399;-45
2023/07/19 08:37:26;;;;;;;6.10;5.00;;;;;;;;;;5054257;28;20911;-45
2023/07/19 08:39:52;;;;;;;8.60;6.20;;;;;;;;;;5051064;28;20483;-46
2023/07/19 08:42:18;;;;;;;7.80;5.83;;;;;;;;;;5053797;28;20460;-45
2023/07/19 08:44:44;;;;;;;7.30;5.80;;;;;;;;;;5054274;28;20384;-48
2023/07/19 08:47:11;;;;;;;7.40;4.70;;;;;;;;;;5054223;28;20416;-48
2023/07/19 08:49:37;;;;;;;9.70;5.87;;;;;;;;;;5048387;28;20443;-52
2023/07/19 08:52:06;;;;;;;12.63;5.00;;;;;;;;;;5046236;28;20413;-46
2023/07/19 08:54:32;;;;;;;8.03;5.27;;;;;;;;;;5052557;28;20417;-45
2023/07/19 08:56:58;;;;;;;7.60;5.17;;;;;;;;;;5053940;28;20417;-45
2023/07/19 08:59:25;;;;;;;6.00;5.23;;;;;;;;;;5049178;28;20416;-45
2023/07/19 09:01:51;;;;;;;15.47;5.70;;;;;;;;;;5053631;28;20441;-46
2023/07/19 09:04:17;;;;;;;22.57;6.30;;;;;;;;;;5053753;28;20870;-46
2023/07/19 09:06:43;;;;;;;6.23;4.80;;;;;;;;;;5053875;28;20912;-46
2023/07/19 09:09:13;;;;;;;7.47;4.50;;;;;;;;;;5052560;28;20410;-46
2023/07/19 09:11:43;;;;;;;8.57;5.20;;;;;;;;;;5053413;28;20796;-46
2023/07/19 09:14:09;;;;;;;8.07;5.30;;;;;;;;;;5053485;28;20412;-45
2023/07/19 09:16:35;;;;;;;7.77;5.30;;;;;;;;;;5053670;28;20408;-47
2023/07/19 09:19:01;;;;;;;6.70;5.03;;;;;;;;;;5053520;28;20416;-46
2023/07/19 09:21:40;;;;;;;9.43;5.10;;;;;;;;;;5053219;28;20756;-45
2023/07/19 09:24:06;;;;;;;7.80;5.27;;;;;;;;;;5049469;28;20393;-46
2023/07/19 09:26:57;;;;;;;14.23;6.03;;;;;;;;;;5051449;28;20983;-46
2023/07/19 09:29:24;;;;;;;10.13;5.20;;;;;;;;;;5049487;28;20498;-47
2023/07/19 09:31:54;;;;;;;5.87;4.70;;;;;;;;;;5051194;28;20754;-48
2023/07/19 09:34:21;;;;;;;12.30;5.90;;;;;;;;;;5051405;28;20416;-49
2023/07/19 09:36:48;;;;;;;5.43;4.23;;;;;;;;;;5050311;28;20432;-46
2023/07/19 09:39:14;;;;;;;6.30;3.90;;;;;;;;;;5050885;28;20484;-51
2023/07/19 09:41:41;;;;;;;6.43;4.47;;;;;;;;;;5051108;28;20421;-47
2023/07/19 09:44:09;;;;;;;10.20;4.10;;;;;;;;;;5052319;28;20423;-47
2023/07/19 09:46:36;;;;;;;6.40;3.83;;;;;;;;;;5053410;28;20375;-46
2023/07/19 09:49:02;;;;;;;9.27;4.40;;;;;;;;;;5047931;28;20429;-48
2023/07/19 09:51:29;;;;;;;8.53;4.10;;;;;;;;;;5037403;28;20789;-45
2023/07/19 09:53:55;;;;;;;6.97;4.33;;;;;;;;;;5045539;28;20961;-45
2023/07/19 09:56:21;;;;;;;8.10;4.30;;;;;;;;;;5052998;28;20413;-46
2023/07/19 09:58:48;;;;;;;9.70;5.50;;;;;;;;;;5053251;28;20855;-45
2023/07/19 10:01:14;;;;;;;6.80;4.30;;;;;;;;;;5052488;28;20416;-46
2023/07/19 10:03:43;;;;;;;8.80;5.27;;;;;;;;;;5052600;28;20533;-45
2023/07/19 10:06:09;;;;;;;9.80;5.20;;;;;;;;;;5052822;28;20399;-45
2023/07/19 10:08:35;;;;;;;7.70;5.20;;;;;;;;;;5052762;28;20442;-47
2023/07/19 10:11:01;;;;;;;5.87;4.60;;;;;;;;;;5052323;28;20417;-46
2023/07/19 10:13:31;;;;;;;7.90;4.70;;;;;;;;;;5050951;28;20419;-50
2023/07/19 10:15:57;;;;;;;6.93;4.70;;;;;;;;;;5045291;28;20450;-51
2023/07/19 10:18:24;;;;;;;11.40;5.40;;;;;;;;;;5045855;28;20422;-45
2023/07/19 10:21:00;;;;;;;8.83;5.10;;;;;;;;;;5044146;28;20417;-47
2023/07/19 10:23:26;;;;;;;6.63;5.43;;;;;;;;;;5043040;28;20464;-48
2023/07/19 10:25:52;;;;;;;11.60;5.33;;;;;;;;;;5043530;28;20421;-45
2023/07/19 10:28:29;;;;;;;7.53;4.97;;;;;;;;;;5046978;28;20452;-45
2023/07/19 10:30:58;;;;;;;9.60;4.93;;;;;;;;;;5051746;28;20415;-45
2023/07/19 10:33:31;;;;;;;10.80;5.10;;;;;;;;;;5046980;28;20425;-50
2023/07/19 10:35:59;;;;;;;9.73;5.00;;;;;;;;;;5052243;28;20934;-50
2023/07/19 10:38:26;;;;;;;6.67;4.70;;;;;;;;;;5045486;28;20783;-45
2023/07/19 10:40:55;;;;;;;6.10;5.50;;;;;;;;;;5051892;28;20413;-48
2023/07/19 10:43:22;;;;;;;14.63;5.40;;;;;;;;;;5051930;28;20538;-47
2023/07/19 10:45:48;;;;;;;12.23;5.30;;;;;;;;;;5050686;28;20488;-45
2023/07/19 10:48:13;;;;;;;7.50;5.47;;;;;;;;;;5048650;28;21160;-45
2023/07/19 10:50:43;;;;;;;7.33;5.37;;;;;;;;;;5050329;28;20429;-45
2023/07/19 10:53:09;;;;;;;9.53;4.80;;;;;;;;;;5051976;28;20467;-47
2023/07/19 10:55:35;;;;;;;16.80;6.13;;;;;;;;;;5050296;28;20416;-47
2023/07/19 10:58:01;;;;;;;9.00;5.70;;;;;;;;;;5048708;28;20456;-49
2023/07/19 11:00:27;;;;;;;6.73;4.93;;;;;;;;;;5051638;28;20427;-50
2023/07/19 11:02:54;;;;;;;9.73;4.80;;;;;;;;;;5051828;28;20471;-50
2023/07/19 11:05:19;;;;;;;8.33;5.10;;;;;;;;;;5051622;28;20460;-50
2023/07/19 11:07:48;;;;;;;11.53;5.20;;;;;;;;;;5051929;28;20464;-46
2023/07/19 11:10:14;;;;;;;10.23;5.63;;;;;;;;;;5050040;28;20528;-46
2023/07/19 11:12:41;;;;;;;8.13;5.33;;;;;;;;;;5051777;28;20413;-45
2023/07/19 11:15:07;;;;;;;8.93;5.50;;;;;;;;;;5051571;28;20913;-46
2023/07/19 11:17:33;;;;;;;9.90;4.93;;;;;;;;;;5051465;28;20789;-47
2023/07/19 11:19:59;;;;;;;8.17;5.27;;;;;;;;;;5051345;28;20429;-48
2023/07/19 11:22:27;;;;;;;7.17;4.53;;;;;;;;;;5050238;28;20464;-50
2023/07/19 11:24:53;;;;;;;7.50;5.43;;;;;;;;;;5051521;28;20921;-46
2023/07/19 11:27:40;;;;;;;5.80;4.10;;;;;;;;;;5051619;28;20477;-49
2023/07/19 11:30:07;;;;;;;7.27;4.50;;;;;;;;;;5047127;28;20426;-49
2023/07/19 11:32:33;;;;;;;5.90;4.80;;;;;;;;;;5051383;28;20510;-46
2023/07/19 11:35:00;;;;;;;8.50;4.40;;;;;;;;;;5051318;28;20410;-46
2023/07/19 11:37:36;;;;;;;6.07;3.93;;;;;;;;;;5049995;28;20420;-45
2023/07/19 11:40:05;;;;;;;7.50;4.43;;;;;;;;;;5050897;28;20440;-45
2023/07/19 11:42:47;;;;;;;7.03;4.50;;;;;;;;;;5046700;28;20462;-49
2023/07/19 11:45:13;;;;;;;7.17;4.30;;;;;;;;;;5051229;28;20458;-50
2023/07/19 11:47:40;;;;;;;10.23;4.17;;;;;;;;;;5048010;28;20974;-49
2023/07/19 11:50:07;;;;;;;9.10;4.70;;;;;;;;;;5046358;28;20438;-46
2023/07/19 11:52:43;;;;;;;6.80;4.20;;;;;;;;;;5050623;28;20415;-45
2023/07/19 11:55:11;;;;;;;18.80;5.00;;;;;;;;;;5051380;28;20423;-45
2023/07/19 11:57:37;;;;;;;5.30;4.40;;;;;;;;;;5051039;28;20443;-46
2023/07/19 12:00:03;;;;;;;7.77;3.90;;;;;;;;;;5050967;28;20478;-49
2023/07/19 12:02:29;;;;;;;4.57;3.73;;;;;;;;;;5053826;28;20480;-50
2023/07/19 12:04:55;;;;;;;8.90;4.70;;;;;;;;;;5054503;28;20401;-46
2023/07/19 12:07:20;;;;;;;5.70;4.40;;;;;;;;;;5055010;28;20462;-46
2023/07/19 12:09:47;;;;;;;9.33;4.30;;;;;;;;;;5054616;28;20516;-47
2023/07/19 12:12:13;;;;;;;3.80;3.40;;;;;;;;;;5054470;28;20406;-47
2023/07/19 12:14:40;;;;;;;5.40;3.07;;;;;;;;;;5048644;28;20401;-47
2023/07/19 12:17:06;;;;;;;8.53;3.67;;;;;;;;;;5054673;28;20419;-48
2023/07/19 12:19:33;;;;;;;3.97;3.00;;;;;;;;;;5053223;28;20438;-47
2023/07/19 12:21:59;;;;;;;4.27;3.40;;;;;;;;;;5054399;28;20460;-47
2023/07/19 12:24:25;;;;;;;12.70;3.67;;;;;;;;;;5054497;28;20406;-47
2023/07/19 12:26:51;;;;;;;12.77;3.53;;;;;;;;;;5054444;28;20409;-47
2023/07/19 12:29:17;;;;;;;12.53;2.90;;;;;;;;;;5054189;28;20432;-49
2023/07/19 12:31:43;;;;;;;7.73;2.80;;;;;;;;;;5054361;28;20401;-50
2023/07/19 12:34:09;;;;;;;5.30;2.47;;;;;;;;;;5053319;28;20825;-46
2023/07/19 12:36:35;;;;;;;4.90;2.70;;;;;;;;;;5054276;28;20440;-47
2023/07/19 12:39:01;;;;;;;3.23;2.93;;;;;;;;;;5054240;28;20482;-46
2023/07/19 12:41:27;;;;;;;7.93;3.13;;;;;;;;;;5054098;28;20414;-46
2023/07/19 12:43:53;;;;;;;82.00;6.33;;;;;;;;;;5054019;28;20457;-47
2023/07/19 12:46:19;;;;;;;3.57;2.43;;;;;;;;;;5054005;28;20406;-48
2023/07/19 12:48:48;;;;;;;38.53;5.97;;;;;;;;;;5054075;28;20487;-50
2023/07/19 12:51:14;;;;;;;16.37;3.23;;;;;;;;;;5053811;28;20429;-47
2023/07/19 12:53:40;;;;;;;20.17;3.17;;;;;;;;;;5054000;28;20410;-46
2023/07/19 12:56:06;;;;;;;5.53;2.33;;;;;;;;;;5054002;28;20960;-48
2023/07/19 12:58:32;;;;;;;8.10;2.30;;;;;;;;;;5053635;28;20437;-46
2023/07/19 13:00:58;;;;;;;5.63;3.77;;;;;;;;;;5051530;28;20417;-47
2023/07/19 13:03:25;;;;;;;7.27;5.80;;;;;;;;;;5048387;28;20503;-51
2023/07/19 13:05:51;;;;;;;4.83;3.40;;;;;;;;;;5052394;28;20901;-47
2023/07/19 13:08:17;;;;;;;3.53;2.47;;;;;;;;;;5051028;28;20428;-46
2023/07/19 13:10:43;;;;;;;6.40;3.33;;;;;;;;;;5050163;28;20879;-46
2023/07/19 13:13:09;;;;;;;7.60;2.90;;;;;;;;;;5045281;28;20417;-46
2023/07/19 13:15:36;;;;;;;2.87;2.67;;;;;;;;;;5052784;28;20436;-47
2023/07/19 13:18:02;;;;;;;6.77;2.97;;;;;;;;;;5053255;28;20442;-46
2023/07/19 13:20:28;;;;;;;5.90;2.60;;;;;;;;;;5053245;28;20798;-47
2023/07/19 13:22:54;;;;;;;4.43;2.83;;;;;;;;;;5053595;28;20457;-47
2023/07/19 13:25:20;;;;;;;21.60;4.03;;;;;;;;;;5053221;28;20935;-49
2023/07/19 13:27:46;;;;;;;6.23;3.10;;;;;;;;;;5053245;28;20869;-48
2023/07/19 13:30:12;;;;;;;6.40;2.93;;;;;;;;;;5052390;28;20465;-50
2023/07/19 13:32:38;;;;;;;4.03;3.67;;;;;;;;;;5045372;28;20811;-46
2023/07/19 13:35:04;;;;;;;2.80;2.63;;;;;;;;;;5047426;28;20453;-47
2023/07/19 13:37:31;;;;;;;4.97;3.03;;;;;;;;;;5047805;28;20468;-46
2023/07/19 13:39:57;;;;;;;3.77;2.57;;;;;;;;;;5052902;28;20441;-50
2023/07/19 13:42:24;;;;;;;3.67;2.83;;;;;;;;;;5052385;28;20460;-47
2023/07/19 13:44:50;;;;;;;4.13;2.83;;;;;;;;;;5052958;28;20397;-49
2023/07/19 13:47:17;;;;;;;12.53;2.87;;;;;;;;;;5050437;28;20421;-47
2023/07/19 13:49:43;;;;;;;5.27;2.77;;;;;;;;;;5052509;28;20448;-46
2023/07/19 13:52:10;;;;;;;3.00;2.40;;;;;;;;;;5052966;28;20784;-47
2023/07/19 13:54:36;;;;;;;3.40;2.97;;;;;;;;;;5052710;28;20414;-47
2023/07/19 13:57:02;;;;;;;2.60;2.40;;;;;;;;;;5052310;28;20406;-47
2023/07/19 13:59:28;;;;;;;3.70;2.10;;;;;;;;;;5052637;28;20429;-47
2023/07/19 14:01:55;;;;;;;2.07;1.97;;;;;;;;;;5052587;28;20951;-47
2023/07/19 14:04:20;;;;;;;5.20;2.30;;;;;;;;;;5053040;28;20402;-47
2023/07/19 14:06:46;;;;;;;2.40;2.20;;;;;;;;;;5052719;28;20412;-47
2023/07/19 14:09:12;;;;;;;2.87;2.10;;;;;;;;;;5052341;28;20432;-49
2023/07/19 14:11:38;;;;;;;4.43;2.33;;;;;;;;;;5051706;28;20420;-47
2023/07/19 14:14:04;;;;;;;2.03;1.87;;;;;;;;;;5052570;28;20422;-48
2023/07/19 14:16:30;;;;;;;2.80;2.00;;;;;;;;;;5052403;28;20449;-49
2023/07/19 14:18:56;;;;;;;5.07;2.30;;;;;;;;;;5049079;28;20441;-46
2023/07/19 14:21:22;;;;;;;4.80;1.90;;;;;;;;;;5050087;28;20492;-47
2023/07/19 14:23:48;;;;;;;4.27;1.90;;;;;;;;;;5045025;28;20499;-47
2023/07/19 14:26:14;;;;;;;4.90;2.30;;;;;;;;;;5051630;28;20413;-46
2023/07/19 14:28:40;;;;;;;3.93;2.17;;;;;;;;;;5052305;28;20433;-47
2023/07/19 14:31:06;;;;;;;2.37;1.60;;;;;;;;;;5050411;28;20832;-46
2023/07/19 14:33:32;;;;;;;2.60;1.93;;;;;;;;;;5050110;28;20511;-49
2023/07/19 14:35:58;;;;;;;12.90;2.47;;;;;;;;;;5050804;28;20520;-48